Time;durP1;ratioP1;P1;durP2;ratioP2;P2;SDS_P1;SDS_P2;PMS_P1;PMS_P2;Temp;Humidity;BMP_temperature;BMP_pressure;BME280_temperature;BME280_humidity;BME280_pressure;Samples;Min_cycle;Max_cycle;Signal;HPM_P1;HPM_P2
2023/03/22 00:01:29;;;;;;;6.18;3.58;;;;;;;5.36;100.00;97094.41;5074836;28;20042;-60
2023/03/22 00:03:57;;;;;;;6.82;3.72;;;;;;;5.32;100.00;97094.88;5072679;28;20036;-60
2023/03/22 00:06:24;;;;;;;6.55;2.85;;;;;;;5.44;100.00;97096.78;5074519;28;20040;-60
2023/03/22 00:08:52;;;;;;;6.03;3.15;;;;;;;5.52;100.00;97091.09;5073917;28;20036;-60
2023/03/22 00:11:21;;;;;;;7.40;3.15;;;;;;;5.59;100.00;97094.53;5076232;28;20048;-60
2023/03/22 00:13:51;;;;;;;7.13;3.60;;;;;;;5.47;100.00;97101.72;5062980;28;20097;-58
2023/03/22 00:16:18;;;;;;;7.63;3.88;;;;;;;5.17;100.00;97095.22;5070494;28;20127;-60
2023/03/22 00:18:45;;;;;;;7.35;3.00;;;;;;;5.11;100.00;97089.94;5073232;28;20684;-60
2023/03/22 00:21:14;;;;;;;7.15;3.33;;;;;;;5.16;100.00;97095.47;5072726;28;20047;-60
2023/03/22 00:23:41;;;;;;;5.93;3.45;;;;;;;5.16;100.00;97090.91;5075984;28;20036;-60
2023/03/22 00:26:09;;;;;;;6.72;3.22;;;;;;;5.12;100.00;97088.91;5076726;28;20051;-60
2023/03/22 00:28:37;;;;;;;6.53;3.40;;;;;;;5.04;100.00;97084.63;5071971;28;20067;-60
2023/03/22 00:31:04;;;;;;;6.38;3.33;;;;;;;5.00;100.00;97088.81;5078652;28;20046;-60
2023/03/22 00:33:31;;;;;;;6.47;3.13;;;;;;;4.91;100.00;97091.00;5071180;28;20044;-59
2023/03/22 00:36:07;;;;;;;6.70;3.20;;;;;;;4.69;100.00;97088.72;5066011;28;20044;-61
2023/03/22 00:38:37;;;;;;;5.70;3.38;;;;;;;4.72;100.00;97080.22;5067404;28;20040;-60
2023/03/22 00:41:15;;;;;;;4.85;3.00;;;;;;;4.73;100.00;97081.88;5072373;28;20044;-59
2023/03/22 00:43:44;;;;;;;5.18;3.05;;;;;;;4.68;100.00;97071.81;5060635;28;20028;-60
2023/03/22 00:46:12;;;;;;;5.10;3.10;;;;;;;4.69;100.00;97072.63;5081807;28;20044;-60
2023/03/22 00:48:39;;;;;;;5.45;2.75;;;;;;;4.76;100.00;97065.31;5078490;28;20040;-60
2023/03/22 00:51:06;;;;;;;5.22;3.30;;;;;;;4.74;100.00;97061.22;5081030;28;20051;-60
2023/03/22 00:53:38;;;;;;;6.03;2.50;;;;;;;4.82;100.00;97056.41;5070998;28;20032;-60
2023/03/22 00:56:08;;;;;;;5.85;2.78;;;;;;;4.86;100.00;97050.59;5076512;28;20135;-60
2023/03/22 00:58:42;;;;;;;7.40;2.83;;;;;;;4.93;100.00;97044.09;5063662;28;20098;-59
2023/03/22 01:01:12;;;;;;;6.05;2.70;;;;;;;5.02;100.00;97054.53;5081928;28;20068;-58
2023/03/22 01:03:40;;;;;;;6.72;2.40;;;;;;;5.10;100.00;97045.34;5068421;28;20040;-59
2023/03/22 01:06:09;;;;;;;4.90;2.60;;;;;;;5.25;100.00;97051.19;5068578;28;20075;-60
2023/03/22 01:08:37;;;;;;;3.97;2.03;;;;;;;5.41;100.00;97046.22;5073172;28;20059;-60
2023/03/22 01:11:05;;;;;;;4.30;2.35;;;;;;;5.27;100.00;97042.91;5077661;28;20071;-59
2023/03/22 01:13:33;;;;;;;7.07;2.72;;;;;;;5.03;100.00;97035.53;5069704;28;20056;-60
2023/03/22 01:16:00;;;;;;;5.22;2.78;;;;;;;4.79;100.00;97035.38;5071450;28;20051;-56
2023/03/22 01:18:26;;;;;;;4.65;2.22;;;;;;;4.73;100.00;97030.91;5070622;28;20246;-60
2023/03/22 01:20:53;;;;;;;3.78;2.38;;;;;;;4.58;100.00;97030.44;5075861;28;20094;-58
2023/03/22 01:23:20;;;;;;;4.32;2.50;;;;;;;4.52;100.00;97032.16;5072473;28;20059;-58
2023/03/22 01:25:46;;;;;;;7.30;2.75;;;;;;;4.50;100.00;97031.56;5069549;28;20036;-60
2023/03/22 01:28:13;;;;;;;4.32;2.63;;;;;;;4.29;100.00;97015.66;5072290;28;20064;-58
2023/03/22 01:30:39;;;;;;;5.07;3.05;;;;;;;4.20;100.00;97022.31;5070569;28;20033;-57
2023/03/22 01:33:07;;;;;;;5.18;2.60;;;;;;;4.33;100.00;97023.25;5062826;28;20041;-60
2023/03/22 01:35:35;;;;;;;5.45;2.70;;;;;;;4.36;100.00;97022.81;5072585;28;20042;-59
2023/03/22 01:38:03;;;;;;;5.43;2.80;;;;;;;4.43;100.00;97018.22;5082504;28;20040;-60
2023/03/22 01:40:33;;;;;;;6.68;2.63;;;;;;;4.39;100.00;97022.38;5064248;28;20063;-59
2023/03/22 01:43:00;;;;;;;3.83;2.22;;;;;;;4.35;100.00;97023.88;5070644;28;20040;-59
2023/03/22 01:45:40;;;;;;;6.03;2.67;;;;;;;4.34;100.00;97023.03;5072064;28;20048;-59
2023/03/22 01:48:13;;;;;;;4.47;2.50;;;;;;;4.27;100.00;97028.47;5077938;28;20052;-59
2023/03/22 01:50:44;;;;;;;6.07;2.72;;;;;;;4.22;100.00;97030.97;5069831;28;20044;-59
2023/03/22 01:53:17;;;;;;;7.35;2.72;;;;;;;4.25;100.00;97017.16;5067411;28;20047;-60
2023/03/22 01:55:45;;;;;;;7.32;2.80;;;;;;;4.25;100.00;97025.19;5063867;28;20070;-59
2023/03/22 01:58:19;;;;;;;7.40;2.60;;;;;;;4.23;100.00;97019.22;5075119;28;20068;-59
2023/03/22 02:00:51;;;;;;;4.78;2.58;;;;;;;4.10;100.00;97022.00;5065767;28;20036;-59
2023/03/22 02:03:36;;;;;;;8.15;3.13;;;;;;;4.22;100.00;97014.91;5076458;28;20102;-59
2023/03/22 02:06:03;;;;;;;6.07;2.50;;;;;;;4.25;100.00;97011.78;5067823;28;20048;-60
2023/03/22 02:08:31;;;;;;;5.60;2.97;;;;;;;4.21;100.00;97015.94;5079152;28;20048;-59
2023/03/22 02:11:02;;;;;;;7.07;3.22;;;;;;;4.26;100.00;97010.75;5075901;28;20044;-59
2023/03/22 02:13:37;;;;;;;6.03;3.10;;;;;;;4.42;100.00;97008.50;5068839;28;20058;-60
2023/03/22 02:16:42;;;;;;;6.45;2.97;;;;;;;4.47;100.00;97011.38;5073248;28;20074;-59
2023/03/22 02:19:47;;;;;;;5.00;2.80;;;;;;;4.45;100.00;97002.72;5073354;28;20058;-59
2023/03/22 02:22:38;;;;;;;5.88;3.38;;;;;;;4.45;100.00;97005.41;5071004;28;20035;-60
2023/03/22 02:25:51;;;;;;;5.38;2.67;;;;;;;4.55;100.00;97002.22;5069936;28;20040;-60
2023/03/22 02:28:29;;;;;;;5.00;2.80;;;;;;;4.63;100.00;96995.72;5066335;28;20422;-60
2023/03/22 02:31:28;;;;;;;6.10;3.10;;;;;;;4.34;100.00;96990.03;5069166;28;20041;-60
2023/03/22 02:34:42;;;;;;;5.40;2.85;;;;;;;4.15;100.00;96992.69;5065665;28;21839;-58
2023/03/22 02:37:37;;;;;;;5.53;2.80;;;;;;;4.11;100.00;96991.50;5045932;28;20053;-59
2023/03/22 02:40:10;;;;;;;5.70;3.08;;;;;;;4.25;100.00;96987.66;5072874;28;20049;-59
2023/03/22 02:42:46;;;;;;;4.70;2.88;;;;;;;4.33;100.00;96991.09;5072018;28;20086;-59
2023/03/22 02:45:28;;;;;;;4.72;2.97;;;;;;;4.37;100.00;96982.38;5079611;28;20043;-58
2023/03/22 02:47:59;;;;;;;5.15;3.03;;;;;;;4.42;100.00;96982.53;5075013;28;20074;-60
2023/03/22 02:50:33;;;;;;;4.55;2.63;;;;;;;4.26;100.00;96989.31;5076476;28;20047;-59
2023/03/22 02:53:13;;;;;;;6.28;2.83;;;;;;;4.14;100.00;96980.34;5076912;28;20664;-59
2023/03/22 02:55:45;;;;;;;6.78;3.10;;;;;;;4.25;100.00;96993.03;5069214;28;20079;-59
2023/03/22 02:58:35;;;;;;;5.78;3.17;;;;;;;4.39;100.00;96982.16;5075238;28;20048;-60
2023/03/22 03:01:07;;;;;;;5.45;2.80;;;;;;;4.47;100.00;96991.78;5082391;28;20634;-59
2023/03/22 03:03:36;;;;;;;5.90;3.10;;;;;;;4.63;100.00;96993.06;5072624;28;20056;-60
2023/03/22 03:06:09;;;;;;;5.03;3.17;;;;;;;4.64;100.00;96992.03;5071592;28;20051;-60
2023/03/22 03:08:37;;;;;;;5.60;3.28;;;;;;;4.60;100.00;96997.00;5084950;28;20036;-58
2023/03/22 03:11:04;;;;;;;5.55;2.85;;;;;;;4.51;100.00;96990.28;5072438;28;20040;-60
2023/03/22 03:13:31;;;;;;;8.45;3.05;;;;;;;4.40;100.00;96998.03;5079225;28;20055;-59
2023/03/22 03:16:01;;;;;;;6.00;3.85;;;;;;;4.30;100.00;96995.03;5073370;28;20040;-59
2023/03/22 03:18:44;;;;;;;4.97;3.03;;;;;;;4.25;100.00;96997.56;5077301;28;20553;-60
2023/03/22 03:21:45;;;;;;;6.93;3.17;;;;;;;4.16;100.00;96995.16;5069486;28;20052;-59
2023/03/22 03:24:41;;;;;;;5.73;3.07;;;;;;;4.26;100.00;96999.19;5071262;28;20048;-60
2023/03/22 03:27:24;;;;;;;6.85;3.28;;;;;;;4.33;100.00;96999.97;5071059;28;20527;-60
2023/03/22 03:30:10;;;;;;;5.10;3.25;;;;;;;4.45;100.00;96997.34;5067826;28;20063;-60
2023/03/22 03:32:53;;;;;;;5.47;2.83;;;;;;;4.51;100.00;96999.16;5077439;28;20694;-60
2023/03/22 03:35:31;;;;;;;4.50;2.65;;;;;;;4.42;100.00;96998.63;5075360;28;20048;-59
2023/03/22 03:38:07;;;;;;;6.47;3.00;;;;;;;4.33;100.00;96994.59;5074404;28;20039;-59
2023/03/22 03:40:40;;;;;;;8.18;3.33;;;;;;;4.24;100.00;96996.72;5071676;28;20540;-59
2023/03/22 03:43:07;;;;;;;;;;;;;;;4.13;100.00;96995.59;5073159;28;20048;-59
2023/03/22 03:45:35;;;;;;;;;;;;;;;4.28;100.00;96991.75;5072502;28;19928;-59
2023/03/22 03:48:09;;;;;;;4.90;2.95;;;;;;;4.34;100.00;96984.69;5072524;28;19920;-59
2023/03/22 03:50:36;;;;;;;6.05;3.30;;;;;;;4.34;100.00;96995.41;5071817;28;20043;-60
2023/03/22 03:53:04;;;;;;;5.75;3.13;;;;;;;4.26;100.00;96988.47;5074108;28;20140;-59
2023/03/22 03:55:31;;;;;;;4.78;3.05;;;;;;;4.29;100.00;96986.19;5067956;28;20052;-59
2023/03/22 03:57:58;;;;;;;6.45;2.97;;;;;;;4.29;100.00;96986.19;5079337;28;20067;-59
2023/03/22 04:00:24;;;;;;;4.75;2.80;;;;;;;4.35;100.00;96984.47;5071427;28;20509;-58
2023/03/22 04:03:20;;;;;;;4.28;2.88;;;;;;;4.46;100.00;96985.59;5040185;28;20490;-57
2023/03/22 04:06:03;;;;;;;6.22;3.03;;;;;;;4.59;100.00;96981.13;5075806;28;20044;-59
2023/03/22 04:08:34;;;;;;;4.85;2.80;;;;;;;4.56;100.00;96985.06;5070684;28;20043;-59
2023/03/22 04:11:01;;;;;;;4.90;2.95;;;;;;;4.43;100.00;96984.16;5073161;28;20094;-59
2023/03/22 04:13:30;;;;;;;4.60;2.53;;;;;;;4.22;100.00;96976.53;5074258;28;20459;-59
2023/03/22 04:16:01;;;;;;;5.35;2.80;;;;;;;4.18;100.00;96975.34;5065440;28;20056;-59
2023/03/22 04:18:31;;;;;;;6.47;3.30;;;;;;;3.85;100.00;96972.75;5078711;28;20044;-59
2023/03/22 04:21:02;;;;;;;5.93;3.30;;;;;;;3.61;100.00;96985.09;5072105;28;20568;-59
2023/03/22 04:23:34;;;;;;;7.60;3.00;;;;;;;3.61;100.00;96985.09;5070745;28;20043;-60
2023/03/22 04:26:00;;;;;;;5.95;3.35;;;;;;;3.67;100.00;96975.34;5069776;28;20123;-58
2023/03/22 04:28:38;;;;;;;8.13;3.10;;;;;;;3.84;100.00;96964.94;5076582;28;20040;-59
2023/03/22 04:31:05;;;;;;;6.10;3.22;;;;;;;3.88;100.00;96963.47;5068358;28;20044;-59
2023/03/22 04:33:46;;;;;;;8.10;3.35;;;;;;;3.84;100.00;96960.38;5075272;28;20047;-59
2023/03/22 04:36:23;;;;;;;5.63;3.58;;;;;;;3.77;100.00;96955.06;5065290;28;20040;-59
2023/03/22 04:39:09;;;;;;;7.90;3.78;;;;;;;3.85;100.00;96967.41;5073128;28;20131;-59
2023/03/22 04:41:37;;;;;;;6.20;3.60;;;;;;;4.07;100.00;96961.66;5072762;28;20052;-58
2023/03/22 04:44:04;;;;;;;5.97;3.63;;;;;;;4.19;100.00;96960.91;5071137;28;20056;-59
2023/03/22 04:46:35;;;;;;;6.65;3.67;;;;;;;4.31;100.00;96953.78;5075620;28;20079;-59
2023/03/22 04:49:04;;;;;;;5.80;3.40;;;;;;;4.45;100.00;96954.47;5071786;28;20068;-59
2023/03/22 04:51:35;;;;;;;7.15;3.10;;;;;;;4.45;100.00;96954.47;5068918;28;20131;-59
2023/03/22 04:54:18;;;;;;;5.30;2.97;;;;;;;4.57;100.00;96957.22;5076413;28;20113;-58
2023/03/22 04:56:44;;;;;;;4.95;2.97;;;;;;;4.60;100.00;96958.66;5075372;28;20036;-59
2023/03/22 04:59:13;;;;;;;7.22;3.28;;;;;;;4.60;100.00;96951.41;5072460;28;20051;-58
2023/03/22 05:01:41;;;;;;;6.45;2.70;;;;;;;4.62;100.00;96949.34;5072772;28;20089;-59
2023/03/22 05:04:14;;;;;;;5.68;3.50;;;;;;;4.72;100.00;96948.78;5072804;28;20039;-59
2023/03/22 05:06:41;;;;;;;5.85;3.47;;;;;;;4.80;100.00;96953.06;5062157;28;20068;-59
2023/03/22 05:09:15;;;;;;;7.97;3.47;;;;;;;4.73;100.00;96955.81;5070041;28;20068;-58
2023/03/22 05:11:42;;;;;;;4.35;2.55;;;;;;;4.84;100.00;96946.19;5073644;28;20041;-59
2023/03/22 05:14:22;;;;;;;5.63;2.40;;;;;;;4.65;100.00;96945.38;5069666;28;20051;-59
2023/03/22 05:16:48;;;;;;;4.88;2.88;;;;;;;4.74;100.00;96945.88;5068274;28;20115;-60
2023/03/22 05:19:15;;;;;;;8.88;3.40;;;;;;;4.75;100.00;96947.56;5083134;28;20044;-59
2023/03/22 05:21:46;;;;;;;7.25;3.05;;;;;;;4.84;100.00;96943.50;5074220;28;20028;-57
2023/03/22 05:24:13;;;;;;;7.30;3.50;;;;;;;4.80;100.00;96947.69;5070093;28;20132;-60
2023/03/22 05:26:42;;;;;;;7.78;3.28;;;;;;;4.66;100.00;96939.81;5067419;28;20847;-59
2023/03/22 05:29:10;;;;;;;5.88;3.10;;;;;;;4.64;100.00;96943.75;5075587;28;20617;-59
2023/03/22 05:31:55;;;;;;;5.82;3.75;;;;;;;4.68;100.00;96943.06;5065299;28;20059;-59
2023/03/22 05:34:21;;;;;;;6.30;3.55;;;;;;;4.75;100.00;96944.88;5073069;28;20128;-59
2023/03/22 05:36:50;;;;;;;6.40;3.60;;;;;;;4.76;100.00;96946.50;5061003;28;20692;-59
2023/03/22 05:39:25;;;;;;;6.82;3.65;;;;;;;4.67;100.00;96949.47;5071124;28;20049;-57
2023/03/22 05:41:52;;;;;;;7.32;3.60;;;;;;;4.67;100.00;96954.84;5071149;28;20044;-59
2023/03/22 05:44:19;;;;;;;4.90;2.90;;;;;;;4.77;100.00;96959.69;5078079;28;20044;-58
2023/03/22 05:47:07;;;;;;;7.13;3.45;;;;;;;4.73;100.00;96952.31;5070519;28;20153;-59
2023/03/22 05:49:38;;;;;;;5.90;2.95;;;;;;;4.66;100.00;96955.06;5069846;28;20039;-59
2023/03/22 05:52:06;;;;;;;6.40;2.92;;;;;;;4.64;100.00;96957.97;5067718;28;20118;-59
2023/03/22 05:54:51;;;;;;;6.00;3.13;;;;;;;4.59;100.00;96960.50;5072394;28;20070;-59
2023/03/22 05:57:18;;;;;;;6.38;3.25;;;;;;;4.59;100.00;96951.63;5067025;28;20143;-59
2023/03/22 05:59:44;;;;;;;7.93;4.28;;;;;;;4.60;100.00;96962.13;5074458;28;20533;-59
2023/03/22 06:02:17;;;;;;;5.70;3.13;;;;;;;4.68;100.00;96969.88;5067309;28;20048;-59
2023/03/22 06:04:44;;;;;;;6.30;2.95;;;;;;;4.78;100.00;96974.72;5067685;28;20040;-58
2023/03/22 06:07:13;;;;;;;5.28;3.30;;;;;;;4.82;100.00;96975.91;5066995;28;20056;-60
2023/03/22 06:09:44;;;;;;;7.55;3.78;;;;;;;4.88;100.00;96968.84;5067323;28;20083;-59
2023/03/22 06:12:16;;;;;;;6.45;3.65;;;;;;;4.93;100.00;96973.50;5071615;28;20046;-59
2023/03/22 06:14:47;;;;;;;6.95;4.43;;;;;;;4.96;100.00;96975.75;5066554;28;20113;-60
2023/03/22 06:17:34;;;;;;;8.60;3.80;;;;;;;5.02;100.00;96972.16;5056394;28;20048;-59
2023/03/22 06:20:08;;;;;;;6.10;3.60;;;;;;;5.08;100.00;96970.44;5077154;28;20499;-59
2023/03/22 06:22:35;;;;;;;8.15;3.88;;;;;;;5.14;100.00;96969.56;5071386;28;20047;-59
2023/03/22 06:25:02;;;;;;;9.48;3.75;;;;;;;5.29;100.00;96971.00;5068010;28;20037;-58
2023/03/22 06:27:35;;;;;;;6.70;3.42;;;;;;;5.42;100.00;96972.69;5073661;28;20039;-59
2023/03/22 06:30:03;;;;;;;9.85;3.70;;;;;;;5.52;100.00;96972.94;5030172;28;1098317;-59
2023/03/22 06:32:36;;;;;;;6.70;3.10;;;;;;;5.63;100.00;96979.41;5073989;28;20044;-60
2023/03/22 06:35:05;;;;;;;7.22;3.72;;;;;;;5.78;100.00;96981.66;5072266;28;20055;-57
2023/03/22 06:37:32;;;;;;;7.65;2.95;;;;;;;5.84;100.00;96982.59;5068690;28;20128;-58
2023/03/22 06:39:59;;;;;;;6.88;3.15;;;;;;;5.96;100.00;96985.28;5077665;28;20131;-59
2023/03/22 06:42:26;;;;;;;5.05;2.60;;;;;;;6.11;100.00;96983.00;5068362;28;20048;-59
2023/03/22 06:45:03;;;;;;;7.50;2.97;;;;;;;6.27;100.00;96988.75;5068691;28;20125;-58
2023/03/22 06:47:32;;;;;;;6.40;3.40;;;;;;;6.38;100.00;96973.69;5074226;28;20052;-58
2023/03/22 06:49:59;;;;;;;5.72;2.80;;;;;;;6.52;100.00;96978.81;5068912;28;20137;-59
2023/03/22 06:52:43;;;;;;;6.97;2.50;;;;;;;6.72;100.00;96973.03;5070848;28;20048;-59
2023/03/22 06:55:11;;;;;;;4.75;2.65;;;;;;;6.89;98.78;96981.19;5072359;28;20581;-57
2023/03/22 06:57:37;;;;;;;5.30;2.78;;;;;;;7.06;98.23;96983.13;5075541;28;20059;-58
2023/03/22 07:00:05;;;;;;;4.97;2.38;;;;;;;7.20;96.56;96981.81;5075565;28;20047;-58
2023/03/22 07:02:31;;;;;;;6.97;2.90;;;;;;;7.35;94.93;96965.13;5070570;28;20579;-59
2023/03/22 07:05:18;;;;;;;8.55;2.97;;;;;;;7.45;95.15;96971.75;5069424;28;20040;-59
2023/03/22 07:07:45;;;;;;;4.32;2.30;;;;;;;7.51;94.08;96970.78;5070111;28;20075;-56
2023/03/22 07:10:12;;;;;;;5.07;2.08;;;;;;;7.67;93.93;96969.19;5078244;28;20047;-59
2023/03/22 07:12:38;;;;;;;8.68;2.60;;;;;;;7.76;92.53;96964.19;5064783;28;20040;-59
2023/03/22 07:15:10;;;;;;;4.82;2.20;;;;;;;7.87;92.00;96955.25;5064666;28;20451;-60
2023/03/22 07:17:50;;;;;;;5.15;2.40;;;;;;;7.97;91.81;96959.16;5064170;28;20040;-59
2023/03/22 07:20:18;;;;;;;5.15;2.85;;;;;;;8.09;91.55;96970.69;5067134;28;20079;-60
2023/03/22 07:22:45;;;;;;;6.30;2.17;;;;;;;8.21;90.20;96965.19;5071458;28;20130;-59
2023/03/22 07:25:12;;;;;;;4.18;1.75;;;;;;;8.32;90.43;96963.44;5073977;28;20481;-58
2023/03/22 07:27:38;;;;;;;6.20;2.08;;;;;;;8.39;88.73;96964.09;5069455;28;20052;-60
2023/03/22 07:30:06;;;;;;;4.03;1.88;;;;;;;8.50;87.58;96969.63;5070436;28;20051;-60
2023/03/22 07:32:40;;;;;;;3.85;1.85;;;;;;;8.55;86.86;96967.84;5071161;28;20041;-58
2023/03/22 07:35:10;;;;;;;3.88;1.67;;;;;;;8.68;87.23;96971.25;5067502;28;20032;-60
2023/03/22 07:37:38;;;;;;;3.85;2.22;;;;;;;8.77;85.77;96974.38;5076710;28;20070;-59
2023/03/22 07:40:14;;;;;;;5.13;1.83;;;;;;;8.87;85.66;96968.25;5075723;28;20064;-57
2023/03/22 07:42:41;;;;;;;4.53;1.83;;;;;;;9.02;85.27;96965.75;5074529;28;20148;-57
2023/03/22 07:45:32;;;;;;;3.28;1.75;;;;;;;9.17;85.50;96967.00;5076279;28;20660;-60
2023/03/22 07:48:22;;;;;;;5.80;1.80;;;;;;;9.30;83.06;96968.50;5046660;28;20105;-56
2023/03/22 07:51:02;;;;;;;6.95;1.88;;;;;;;9.46;82.91;96961.34;5073180;28;20044;-58
2023/03/22 07:53:28;;;;;;;4.97;2.33;;;;;;;9.58;81.84;96969.34;5068310;28;20044;-57
2023/03/22 07:55:55;;;;;;;3.97;1.67;;;;;;;9.71;81.80;96958.09;5046193;28;20052;-58
2023/03/22 07:58:22;;;;;;;4.63;1.42;;;;;;;9.83;81.01;96962.50;5069920;28;20059;-59
2023/03/22 08:00:49;;;;;;;3.75;1.52;;;;;;;9.93;79.75;96970.72;5071732;28;20055;-59
2023/03/22 08:03:36;;;;;;;5.13;2.10;;;;;;;10.04;79.91;96963.50;5078850;28;20185;-59
2023/03/22 08:06:11;;;;;;;5.60;1.77;;;;;;;10.22;78.74;96964.19;5065880;28;20094;-59
2023/03/22 08:08:38;;;;;;;6.68;1.83;;;;;;;10.32;77.39;96966.16;5070021;28;20041;-60
2023/03/22 08:11:06;;;;;;;3.03;1.20;;;;;;;10.39;78.07;96959.41;5077866;28;20044;-59
2023/03/22 08:13:33;;;;;;;4.45;1.40;;;;;;;10.51;77.23;96961.16;5054656;28;20036;-60
2023/03/22 08:16:00;;;;;;;2.97;1.13;;;;;;;10.58;76.65;96959.00;5071505;28;20051;-60
2023/03/22 08:18:28;;;;;;;6.22;2.33;;;;;;;10.78;75.72;96965.63;5072193;28;20044;-58
2023/03/22 08:20:56;;;;;;;2.90;1.10;;;;;;;10.76;75.09;96967.78;5076932;28;20046;-60
2023/03/22 08:23:27;;;;;;;3.92;1.20;;;;;;;10.97;74.86;96968.69;5082011;28;20048;-57
2023/03/22 08:26:26;;;;;;;4.35;1.33;;;;;;;11.04;74.54;96961.16;5070127;28;20225;-60
2023/03/22 08:28:55;;;;;;;3.50;1.05;;;;;;;11.10;73.04;96963.88;5069628;28;20135;-59
2023/03/22 08:31:22;;;;;;;2.47;1.13;;;;;;;11.17;72.73;96964.44;5077745;28;20418;-60
2023/03/22 08:33:49;;;;;;;1.55;0.90;;;;;;;11.31;72.81;96964.72;5074681;28;20133;-60
2023/03/22 08:36:19;;;;;;;2.88;0.90;;;;;;;11.42;71.25;96966.41;5069394;28;20043;-60
2023/03/22 08:38:51;;;;;;;2.97;0.85;;;;;;;11.49;68.83;96966.13;5071649;28;20047;-59
2023/03/22 08:41:24;;;;;;;3.15;0.90;;;;;;;11.54;69.49;96965.34;5069361;28;20044;-60
2023/03/22 08:43:50;;;;;;;2.10;0.90;;;;;;;11.67;69.62;96959.41;5078733;28;20036;-58
2023/03/22 08:46:17;;;;;;;2.88;0.88;;;;;;;11.76;69.23;96964.28;5052587;28;20086;-60
2023/03/22 08:48:49;;;;;;;1.17;0.70;;;;;;;11.81;69.18;96967.00;5073769;28;20503;-59
2023/03/22 08:51:26;;;;;;;;;;;;;;;11.86;70.01;96966.22;5078999;28;20044;-58
2023/03/22 08:54:03;;;;;;;1.70;0.70;;;;;;;11.88;69.57;96955.88;5073267;28;20018;-60
2023/03/22 08:56:57;;;;;;;2.58;0.85;;;;;;;11.90;68.23;96959.16;5080134;28;20192;-60
2023/03/22 08:59:51;;;;;;;3.10;0.98;;;;;;;11.96;70.35;96947.22;5069275;28;20033;-58
2023/03/22 09:02:34;;;;;;;2.17;0.90;;;;;;;12.08;70.57;96953.22;5076060;28;20106;-59
2023/03/22 09:05:01;;;;;;;1.50;0.70;;;;;;;12.22;69.25;96956.19;5072888;28;20543;-60
2023/03/22 09:07:29;;;;;;;2.97;1.15;;;;;;;12.31;67.65;96948.28;5074156;28;20507;-59
2023/03/22 09:10:11;;;;;;;2.38;0.88;;;;;;;12.42;67.97;96938.22;5073708;28;20073;-59
2023/03/22 09:12:41;;;;;;;4.25;1.00;;;;;;;12.32;65.48;96944.47;5074551;28;20048;-59
2023/03/22 09:15:09;;;;;;;2.08;0.90;;;;;;;12.39;66.74;96948.84;5079554;28;20040;-61
2023/03/22 09:17:38;;;;;;;3.17;0.80;;;;;;;12.52;66.38;96945.53;5076631;28;20090;-60
2023/03/22 09:20:06;;;;;;;1.85;0.93;;;;;;;12.49;65.30;96943.38;5076218;28;20059;-59
2023/03/22 09:22:40;;;;;;;1.63;0.77;;;;;;;12.55;64.89;96942.28;5061491;28;20040;-61
2023/03/22 09:25:09;;;;;;;2.35;0.90;;;;;;;12.63;64.58;96934.66;5070129;28;20504;-61
2023/03/22 09:27:40;;;;;;;;;;;;;;;12.74;65.03;96939.78;5065916;28;20044;-59
2023/03/22 09:30:07;;;;;;;1.70;0.77;;;;;;;12.89;64.17;96927.22;5069417;28;19920;-61
2023/03/22 09:32:34;;;;;;;2.97;0.80;;;;;;;12.87;63.50;96934.84;5070050;28;20039;-58
2023/03/22 09:35:02;;;;;;;4.05;1.30;;;;;;;12.96;64.73;96933.19;5064772;28;20135;-61
2023/03/22 09:37:37;;;;;;;2.75;0.90;;;;;;;13.14;63.84;96925.50;5071849;28;20221;-60
2023/03/22 09:40:06;;;;;;;1.35;0.70;;;;;;;13.19;62.48;96936.31;5088750;27;20050;-61
2023/03/22 09:42:39;;;;;;;3.17;0.90;;;;;;;13.29;62.43;96916.44;5079007;28;20040;-61
2023/03/22 09:45:14;;;;;;;1.98;0.55;;;;;;;13.24;61.60;96922.69;5063820;28;20095;-61
2023/03/22 09:47:49;;;;;;;1.48;0.70;;;;;;;13.32;61.63;96918.59;5087641;27;20440;-60
2023/03/22 09:50:22;;;;;;;2.90;0.70;;;;;;;13.12;61.61;96908.66;5075683;28;20071;-59
2023/03/22 09:52:50;;;;;;;5.05;0.95;;;;;;;13.18;62.94;96906.69;5063763;28;20050;-58
2023/03/22 09:55:29;;;;;;;3.40;0.90;;;;;;;13.31;63.01;96905.28;5072089;28;20040;-61
2023/03/22 09:58:34;;;;;;;1.67;0.90;;;;;;;13.39;62.76;96910.13;5083122;28;20044;-61
2023/03/22 10:01:15;;;;;;;1.67;0.90;;;;;;;13.32;61.98;96905.00;5068469;28;20599;-60
2023/03/22 10:04:25;;;;;;;1.77;0.82;;;;;;;13.30;61.14;96899.03;5075422;28;20123;-60
2023/03/22 10:07:20;;;;;;;3.03;0.90;;;;;;;13.50;61.94;96898.09;5071510;28;20644;-60
2023/03/22 10:10:05;;;;;;;2.30;0.85;;;;;;;13.71;61.15;96897.16;5071743;28;20055;-61
2023/03/22 10:12:35;;;;;;;1.70;1.00;;;;;;;13.82;61.48;96895.97;5074663;28;20068;-60
2023/03/22 10:15:17;;;;;;;2.33;0.80;;;;;;;14.11;61.66;96892.44;5072405;28;20097;-60
2023/03/22 10:17:52;;;;;;;4.00;0.80;;;;;;;14.23;59.59;96894.78;5068456;28;20507;-61
2023/03/22 10:20:31;;;;;;;3.80;1.35;;;;;;;14.27;60.43;96889.59;5068272;28;20051;-61
2023/03/22 10:23:00;;;;;;;7.38;1.20;;;;;;;14.40;59.71;96883.44;5077380;28;20048;-61
2023/03/22 10:25:34;;;;;;;1.42;0.70;;;;;;;14.52;58.70;96876.78;5068016;28;20036;-61
2023/03/22 10:28:01;;;;;;;1.83;0.70;;;;;;;14.79;58.13;96878.13;5074028;28;20090;-62
2023/03/22 10:30:36;;;;;;;3.33;0.90;;;;;;;14.95;58.52;96884.19;5072899;28;20040;-60
2023/03/22 10:33:11;;;;;;;2.05;0.80;;;;;;;15.05;56.14;96875.06;5078608;28;20050;-61
2023/03/22 10:35:37;;;;;;;4.25;1.08;;;;;;;15.15;56.89;96874.91;5068376;28;20415;-62
2023/03/22 10:38:08;;;;;;;2.65;1.10;;;;;;;15.05;54.92;96864.16;5077449;28;20051;-61
2023/03/22 10:40:36;;;;;;;2.17;0.57;;;;;;;15.19;54.80;96872.44;5071641;28;20075;-59
2023/03/22 10:43:22;;;;;;;2.47;0.63;;;;;;;15.35;54.32;96859.38;5081468;28;20044;-59
2023/03/22 10:45:52;;;;;;;1.08;0.43;;;;;;;15.57;55.11;96860.69;5069146;28;20115;-59
2023/03/22 10:48:31;;;;;;;0.98;0.47;;;;;;;15.57;52.91;96863.41;5080052;28;20086;-58
2023/03/22 10:50:59;;;;;;;1.55;0.70;;;;;;;15.41;50.30;96871.03;5072845;28;20079;-58
2023/03/22 10:53:44;;;;;;;2.42;0.60;;;;;;;15.64;51.54;96863.84;5073428;28;20048;-62
2023/03/22 10:56:14;;;;;;;1.88;0.50;;;;;;;15.76;49.79;96857.91;5066618;28;20059;-61
2023/03/22 10:58:41;;;;;;;0.63;0.30;;;;;;;15.88;49.69;96862.09;5068845;28;20040;-61
2023/03/22 11:01:10;;;;;;;1.58;0.45;;;;;;;15.91;50.41;96858.75;5075594;28;20708;-60
2023/03/22 11:03:42;;;;;;;1.50;0.35;;;;;;;15.68;48.91;96856.69;5073153;28;20040;-62
2023/03/22 11:06:24;;;;;;;4.00;1.25;;;;;;;15.54;50.31;96845.72;5068394;28;20369;-61
2023/03/22 11:09:18;;;;;;;0.70;0.40;;;;;;;15.73;49.30;96859.31;5077283;28;20040;-61
2023/03/22 11:11:58;;;;;;;1.08;0.50;;;;;;;15.81;49.98;96852.38;5071605;28;20090;-62
2023/03/22 11:14:27;;;;;;;1.67;0.47;;;;;;;15.96;50.27;96853.25;5069367;28;20047;-61
2023/03/22 11:16:59;;;;;;;1.17;0.60;;;;;;;16.01;47.70;96847.69;5076300;28;20036;-61
2023/03/22 11:19:31;;;;;;;0.88;0.40;;;;;;;16.26;48.57;96851.06;5074913;28;20040;-62
2023/03/22 11:21:59;;;;;;;2.20;0.38;;;;;;;16.41;46.48;96844.50;5074251;28;20047;-61
2023/03/22 11:24:28;;;;;;;0.82;0.40;;;;;;;16.30;46.58;96851.28;5072582;28;20040;-62
2023/03/22 11:27:20;;;;;;;1.27;0.47;;;;;;;16.07;46.65;96848.44;5075416;28;20119;-62
2023/03/22 11:29:53;;;;;;;0.90;0.45;;;;;;;16.32;46.10;96836.19;5079721;28;20072;-62
2023/03/22 11:32:21;;;;;;;0.57;0.32;;;;;;;16.42;45.37;96839.84;5078592;28;20040;-62
2023/03/22 11:34:58;;;;;;;1.40;0.50;;;;;;;16.70;46.04;96834.38;5071017;28;20035;-62
2023/03/22 11:37:25;;;;;;;0.80;0.40;;;;;;;16.62;42.09;96841.38;5064580;28;20500;-62
2023/03/22 11:39:58;;;;;;;1.02;0.50;;;;;;;16.50;43.31;96829.03;5079775;28;20097;-62
2023/03/22 11:42:25;;;;;;;1.13;0.40;;;;;;;16.55;43.44;96835.50;5074321;28;20040;-61
2023/03/22 11:44:55;;;;;;;0.90;0.30;;;;;;;16.48;42.40;96836.69;5073373;28;20632;-62
2023/03/22 11:47:25;;;;;;;0.82;0.40;;;;;;;16.54;44.21;96836.63;5071148;28;20040;-62
2023/03/22 11:49:55;;;;;;;1.08;0.40;;;;;;;16.48;43.18;96830.44;5072181;28;20040;-61
2023/03/22 11:52:25;;;;;;;1.23;0.60;;;;;;;16.59;44.22;96825.56;5074750;28;20118;-61
2023/03/22 11:54:53;;;;;;;2.40;0.40;;;;;;;16.55;42.38;96822.63;5070090;28;20318;-61
2023/03/22 11:57:27;;;;;;;1.20;0.43;;;;;;;16.80;43.21;96822.41;5077943;28;20052;-61
2023/03/22 12:00:10;;;;;;;1.30;0.60;;;;;;;16.81;41.19;96824.03;5080115;28;20048;-61
2023/03/22 12:02:45;;;;;;;1.10;0.40;;;;;;;16.86;41.39;96821.19;5078004;28;20834;-62